This is the latest recevied weather packets stored in our database for station/object K6TTR. If no packets are shown the sender has not sent any weather packets the latest 1 day(s).
| Time | Temp. | Humidity | Pressure | Rain* | Wind** | Luminosity | Snow |
|---|---|---|---|---|---|---|---|
| 1778090022 | 16.67° C | 67% | 1022.3 hPa | 0 mm | - | 837 W/m² | - |
| 1778089725 | 16.11° C | 67% | 1022.3 hPa | 0 mm | - | 823 W/m² | - |
| 1778088523 | 15.56° C | 69% | 1021.6 hPa | 0 mm | - | 63 W/m² | - |
| 1778087913 | 15° C | 72% | 1021.6 hPa | 0 mm | - | 91 W/m² | - |
| 1778087618 | 14.44° C | 73% | 1021.6 hPa | 0 mm | - | 83 W/m² | - |
| 1778086413 | 13.33° C | 77% | 1021.8 hPa | 0 mm | - | 63 W/m² | - |
| 1778086117 | 12.78° C | 79% | 1021.8 hPa | 0 mm | - | 63 W/m² | - |
| 1778085822 | 12.78° C | 82% | 1021.9 hPa | 0 mm | - | 81 W/m² | - |
| 1778085526 | 12.22° C | 83% | 1021.8 hPa | 0 mm | - | 60 W/m² | - |
| 1778084913 | 11.11° C | 86% | 1022 hPa | 0 mm | - | 603 W/m² | - |
| 1778083712 | 9.44° C | 91% | 1022.1 hPa | 0 mm | - | 86 W/m² | - |
| 1778082515 | 9.44° C | 92% | 1022 hPa | 0 mm | - | 336 W/m² | - |
| 1778082220 | 8.89° C | 92% | 1022.1 hPa | 0 mm | - | 459 W/m² | - |
| 1778081926 | 8.89° C | 92% | 1022.1 hPa | 0 mm | - | 411 W/m² | - |
| 1778081316 | 8.33° C | 92% | 1022.1 hPa | 0 mm | - | 178 W/m² | - |
| 1778081020 | 7.78° C | 92% | 1022 hPa | 0 mm | - | 204 W/m² | - |
| 1778080726 | 7.78° C | 92% | 1022.2 hPa | 0 mm | - | 56 W/m² | - |
| 1778080415 | 7.22° C | 92% | 1022 hPa | 0 mm | - | 53 W/m² | - |
| 1778079824 | 7.22° C | 92% | 1022 hPa | 0 mm | - | 67 W/m² | - |
| 1778079530 | 7.22° C | 92% | 1022 hPa | 0 mm | - | 105 W/m² | - |
| 1778079216 | 6.67° C | 92% | 1022 hPa | 0 mm | - | 113 W/m² | - |
| 1778078014 | 6.67° C | 92% | 1021.9 hPa | 0 mm | - | 84 W/m² | - |
| 1778077719 | 6.11° C | 92% | 1021.9 hPa | 0 mm | - | 67 W/m² | - |
| 1778077425 | 6.11° C | 92% | 1021.9 hPa | 0 mm | - | 79 W/m² | - |
| 1778076813 | 6.11° C | 92% | 1021.8 hPa | 0 mm | - | 58 W/m² | - |
* Rain latest hour (hover to see other rain measurements)
** Current wind speed in m/s (hover to see current wind gust speed)